Forest Lake, Illinois
Current Conditions -  °F | °C
As of 2:52 PM on Wednesday 17 Dec 2014 (Local Time) from KPWK Reporting Station
Overcast Overcast  
Wind Chill: 15°   Ceiling: 2300
Heat Index: 26°   Visibility: 10mi
Dew Point: 16°   Wind: 13mph
Humidity: 66%   Direction: 290°WNW
Pressure: 30.23"   Gusts: NA
Location:  42.201°N, 88.0504°W
Report Text: KPWK 172052Z 29011KT 10SM OVC023 M03/M09 A3023 RMK AO2 SLP245 T10331089 55002
Loading
Personal Weather Stations






























Interactive Weather Map New forecast layout! Learn more

10-Day Weather Forecast

Advertisements
Track Severe Weather on mobile